Tiempo atmosférico en la estación meteorológica de Santander, Cantabria (52 m.)



Fecha
DESCASC
Temp. máxima en grados centígrados (hora)
DESCASC
Temp. mínima en grados centígrados (hora)
DESCASC
Temp. media en grados centígrados
DESCASC
Racha de viento máxima en m/sg (hora)
DESCASC
Velocidad máxima media en intervalos de 10 minutos(hora)
DESCASC
Precipitaciones diarias en mm
DESCASC
Precipitaciones de 00:00 a 06:00 en mm
DESCASC
Precipitaciones de 06:00 a 12:00 en mm
DESCASC
Precipitaciones de 12:00 a 18:00 en mm
DESCASC
Precipitaciones de 18:00 a 24:00 en mm
DESCASC
13-06-2019 17.2 (14:30) 11.5 (06:40) 14.4 8.33 (14:30) 5.83 (15:10) 0 0 0 0 0
12-06-2019 16.7 (18:40) 13 (00:20) 14.9 18.33 (05:20) 11.94 (05:20) 0.6 0.6 0 0 0
11-06-2019 16.5 (16:40) 10.6 (07:30) 13.6 15.56 (06:20) 10.56 (23:50) 17.8 8.6 7.6 0.4 1.2
10-06-2019 16.4 (13:20) 11.6 (06:00) 14 6.94 (23:30) 4.72 (15:00) 5.2 0 0 0 5.2
09-06-2019 14.7 (00:10) 12.6 (00:00) 13.7 10.56 (16:40) 7.78 (16:20) 5.1 0 0 4.5 0.6
08-06-2019 17.7 (11:30) 12.7 (00:00) 15.2 11.67 (15:40) 8.89 (15:10) 0 0 0 0 0
07-06-2019 17.3 (18:30) 12.5 (00:00) 14.9 21.94 (10:50) 15.56 (10:50) 0.6 0.6 0 0 0
06-06-2019 23.5 (20:50) 11.4 (00:00) 17.4 16.94 (21:30) 9.72 (16:10) 0.6 0.2 0 0 0.4
05-06-2019 16.5 (15:20) 11.8 (00:00) 14.2 15.83 (13:40) 10.28 (14:00) 9.2 8.2 1 0 0
04-06-2019 19.3 (11:40) 12.7 (00:00) 16 13.06 (15:00) 9.17 (15:40) 4.6 0 0 0 4.6
03-06-2019 20.5 (13:00) 15.2 (00:00) 17.8 6.67 (18:00) 5 (14:00) 0 0 0 0 0
02-06-2019 21.8 (09:20) 16.4 (00:00) 19.1 7.22 (17:40) 5 (17:10) 0 0 0 0 0
01-06-2019 23.1 (15:00) 16.3 (00:00) 19.7 7.78 (19:30) 6.11 (17:00) 0 0 0 0 0
31-05-2019 20.1 (19:10) 14.3 (00:00) 17.2 10.83 (19:40) 8.33 (12:30) 0 0 0 0 0
30-05-2019 18.4 (18:30) 11.8 (00:00) 15.1 12.5 (16:50) 9.44 (17:30) 0 0 0 0 0
29-05-2019 18.3 (16:10) 13.2 (00:00) 15.7 8.89 (06:30) 6.11 (06:20) 0 0 0 0 0
28-05-2019 16.3 (17:20) 13.4 (00:00) 14.8 13.33 (12:30) 8.33 (11:30) 0.4 0 0 0.4 0
27-05-2019 17.1 (09:40) 13.2 (00:00) 15.2 9.17 (14:10) 6.67 (14:00) 1 0 0.4 0.6 0
26-05-2019 16.2 (12:20) 13.4 (00:00) 14.8 8.33 (13:50) 6.11 (11:40) 0.4 0.2 0 0 0.2
25-05-2019 17 (18:10) 13.7 (00:00) 15.3 9.72 (07:40) 6.11 (07:40) 0.4 0 0.4 0 0
24-05-2019 15.8 (13:10) 13.3 (00:00) 14.6 13.61 (01:30) 8.89 (00:40) 1.6 0 0.2 1.4 0
23-05-2019 17.5 (14:20) 13.5 (00:00) 15.5 12.78 (23:00) 8.33 (22:40) 2.6 0 0 2.6 0
22-05-2019 16.6 (13:50) 10.2 (00:00) 13.4 12.5 (16:10) 9.72 (16:10) 0 0 0 0 0
21-05-2019 16.3 (13:10) 10.7 (05:30) 13.5 11.39 (16:10) 8.89 (15:50) 0 0 0 0 0
20-05-2019 16.1 (16:30) 10.3 (04:40) 13.2 6.11 (16:40) 5 (16:50) 0 0 0 0 0
19-05-2019 15.1 (18:00) 11 (00:00) 13.1 16.39 (06:10) 11.39 (08:10) 7.2 3 4.2 0 0
18-05-2019 12.6 (20:40) 9.6 (00:00) 11.1 17.5 (12:20) 12.5 (19:30) 16 1.6 7.2 6 1.2
17-05-2019 13.6 (17:10) 10.2 (00:00) 11.9 20.28 (05:10) 13.33 (09:20) 14.6 2 2.4 6.6 3.6

Gráficas

Temp. máximas Temp. mínimas Temp. medias Precipitaciones Rachas de viento máximas Velocidades máximas media en intervalos de 10 minutos

Datos horarios

Fecha y hora oficial Temperatura (ºC) Velocidad del viento (km/h) Dirección del viento Racha (km/h) Dirección de racha Precipitación (mm) Presión (hPa) Tendencia (hPa) Humedad (%)
2019-06-15 23:00:00 15.7 2 Norte 4 Noroeste 0 1016.5 0.5 75
2019-06-15 22:00:00 15.8 4 Noroeste 7 Noroeste 0 1016.1 0.4 74
2019-06-15 21:00:00 16.2 3 Noroeste 8 Noroeste 0 1016.1 0.6 73
2019-06-15 20:00:00 16.4 5 Noroeste 11 Noroeste 0 1016 0.5 73
2019-06-15 19:00:00 16.8 8 Noroeste 13 Noroeste 0 1015.7 0.7 71
2019-06-15 18:00:00 17.4 6 Norte 14 Noroeste 0 1015.5 0.7 73
2019-06-15 17:00:00 17.2 12 Norte 22 Norte 0 1015.5 1 71
2019-06-15 16:00:00 18 14 Norte 25 Norte 0 1015 0.5 73
2019-06-15 15:00:00 17.9 13 Norte 19 Norte 0 1014.8 0.6 70
2019-06-15 14:00:00 18.1 11 Norte 17 Noroeste 0 1014.5 0.7 71
2019-06-15 13:00:00 17.3 12 Norte 17 Norte 0 1014.5 0.9 69
2019-06-15 12:00:00 17.6 10 Norte 14 Noroeste 0 1014.2 1.1 72
2019-06-15 11:00:00 17.1 7 Norte 13 Noroeste 0 1013.8 1.3 73
2019-06-15 10:00:00 18 6 Oeste 14 Sudoeste 0 1013.6 1.6 69
2019-06-15 09:00:00 16.2 8 Sudoeste 12 Sudoeste 0 1013.1 1.2 80
2019-06-15 08:00:00 15.6 6 Sudoeste 15 Sudoeste 0 1012.5 0.7 82
2019-06-15 07:00:00 13.4 13 Sur 15 Sur 0 1012 0.2 86
2019-06-15 06:00:00 13.6 10 Sudoeste 14 Sur 0 1011.9 0.2 86
2019-06-15 05:00:00 13.8 10 Sudoeste 13 Sur 0 1011.8 0.3 86
2019-06-15 04:00:00 13.9 7 Sudoeste 13 Sudoeste 0 1011.8 0.4 85
2019-06-15 03:00:00 14 10 Sudoeste 15 Sudoeste 0 1011.7 0.5 84
2019-06-15 02:00:00 13.7 10 Sudoeste 14 Sudoeste 0 1011.5 0.7 85
2019-06-15 01:00:00 13.9 7 Sudoeste 11 Sudoeste 0 1011.4 1.6 85
2019-06-15 00:00:00 13.9 6 Sudoeste 9 Sudoeste 0 1011.2 2 85
2019-06-14 23:00:00 13.9 6 Oeste 8 Oeste 0 1010.8 2.3 83
2019-06-14 22:00:00 14.5 4 Oeste 8 Norte 0 1009.8 1.6 81
2019-06-14 21:00:00 15.8 5 Norte 8 Noroeste 0 1009.2 1 78
2019-06-14 20:00:00 16.3 4 Nordeste 6 Nordeste 0 1008.5 0.4 78
2019-06-14 19:00:00 15.6 4 Este 8 Este 0 1008.2 0.5 82
2019-06-14 18:00:00 15 4 Norte 16 Nordeste 0 1008.2 0.6 84
2019-06-14 17:00:00 14.8 13 Nordeste 19 Nordeste 0 1008.1 0.8 84
2019-06-14 16:00:00 15.3 15 Nordeste 20 Nordeste 0 1007.7 0.6 83
2019-06-14 15:00:00 15.5 15 Nordeste 24 Nordeste 0 1007.6 0.5 83
2019-06-14 14:00:00 16.2 18 Nordeste 24 Nordeste 0 1007.3 0.2 81
2019-06-14 13:00:00 16.4 18 Nordeste 23 Nordeste 0 1007.1 0.2 81
2019-06-14 12:00:00 15.8 14 Nordeste 21 Nordeste 0 1007.1 0.3 82
2019-06-14 11:00:00 15.7 11 Nordeste 16 Nordeste 0 1007.1 0.4 83
2019-06-14 10:00:00 15.4 13 Este 17 Este 0 1006.9 0.2 86
2019-06-14 09:00:00 14 9 Sudeste 13 Sudeste 0 1006.8 0.3 91
2019-06-14 08:00:00 12.9 6 Sudeste 8 Sudeste 0 1006.7 0.1 91
2019-06-14 07:00:00 12.1 6 Sudeste 13 Sudeste 0 1006.7 -0.2 91
2019-06-14 06:00:00 11.7 9 Sudeste 13 Sur 0 1006.5 -0.9 91
2019-06-14 05:00:00 11.6 9 Sudeste 12 Sudeste 0 1006.6 -1.3 90
2019-06-14 04:00:00 11.8 9 Sudeste 12 Sudeste 0 1006.9 -1.4 90
2019-06-14 03:00:00 12.2 9 Sudeste 11 Sudeste 0 1007.4 -1.1 87
2019-06-14 02:00:00 13.1 5 Sur 6 Sur 0 1007.9 -0.4 85
2019-06-14 01:00:00 13.1 7 Sudeste 8 Sudeste 0 1008.3 0.7 82
2019-06-14 00:00:00 13.4 2 Este 8 Norte 0 1008.5 1.4 81
2019-06-13 23:00:00 14.1 5 Norte 11 Noroeste 0 1008.3 1.6 81
2019-06-13 22:00:00 14.4 8 Norte 14 Noroeste 0 1007.6 1.3 81
2019-06-13 21:00:00 14.6 8 Norte 14 Nordeste 0 1007.1 1.1 81
2019-06-13 20:00:00 14.9 10 Norte 18 Nordeste 0 1006.7 1.1 79
2019-06-13 19:00:00 14.8 15 Norte 22 Norte 0 1006.3 0.8 79
2019-06-13 18:00:00 14.9 13 Norte 20 Norte 0 1006 0.8 79
2019-06-13 17:00:00 15.5 13 Nordeste 20 Nordeste 0 1005.6 0.3 77
2019-06-13 16:00:00 15.8 18 Nordeste 26 Nordeste 0 1005.5 0.1 77
2019-06-13 15:00:00 16.7 21 Nordeste 30 Nordeste 0 1005.2 -0.6 77
2019-06-13 14:00:00 16.6 20 Nordeste 25 Nordeste 0 1005.3 -0.6 75
2019-06-13 13:00:00 16.1 18 Nordeste 21 Nordeste 0 1005.4 -0.5 77
2019-06-13 12:00:00 16 13 Nordeste 17 Nordeste 0 1005.8 -0.2 79
2019-06-13 11:00:00 15.6 9 Nordeste 11 Nordeste 0 1005.9 0 77
2019-06-13 10:00:00 16.2 8 Nordeste 12 Este 0 1005.9 -0.1 76
2019-06-13 09:00:00 15.4 5 Sudeste 7 Sudeste 0 1006 0.3 83
2019-06-13 08:00:00 14 4 Sur 9 Sur 0 1005.9 0.1 86
2019-06-13 07:00:00 11.8 9 Sur 10 Sur 0 1006 -0.2 87
2019-06-13 06:00:00 11.8 9 Sur 10 Sur 0 1005.7 -0.8 86
2019-06-13 05:00:00 12.7 6 Sudoeste 9 Sudoeste 0 1005.8 -1.3 85
2019-06-13 04:00:00 12.6 7 Sur 12 Sudoeste 0 1006.2 -1.5 83
2019-06-13 03:00:00 12.6 8 Sudoeste 13 Sudoeste 0 1006.5 -1.7 83
2019-06-13 02:00:00 13.1 8 Sudoeste 12 Sudoeste 0 1007.1 -1.4 82
2019-06-13 01:00:00 13 8 Sudoeste 13 Oeste 0 1007.7 -0.5 82
2019-06-13 00:00:00 13.8 7 Sudoeste 12 Sudoeste 0 1008.2 0 81
2019-06-12 23:00:00 13.8 5 Sudoeste 16 Oeste 0 1008.5 0.5 80
2019-06-12 22:00:00 13.7 10 Oeste 19 Oeste 0 1008.2 0.3 78
2019-06-12 21:00:00 14.5 15 Oeste 26 Noroeste 0 1008.2 0.1 76
2019-06-12 20:00:00 15.4 17 Noroeste 28 Noroeste 0 1008 -0.2 74
2019-06-12 19:00:00 16.1 20 Noroeste 31 Oeste 0 1007.9 -0.5 71
2019-06-12 18:00:00 16.1 21 Oeste 33 Noroeste 0 1008.1 -0.3 70
2019-06-12 17:00:00 16.1 22 Noroeste 35 Noroeste 0 1008.2 -0.5 74
2019-06-12 16:00:00 15.4 24 Noroeste 41 Noroeste 0 1008.4 0 72
2019-06-12 15:00:00 15.9 27 Oeste 45 Noroeste 0 1008.4 0 72
2019-06-12 14:00:00 15 30 Oeste 45 Oeste 0 1008.7 0.7 71
2019-06-12 13:00:00 15.9 31 Oeste 48 Oeste 0 1008.4 0.5 67
2019-06-12 12:00:00 15.2 32 Oeste 51 Oeste 0 1008.4 0.6 70
2019-06-12 11:00:00 14 33 Oeste 50 Oeste 0 1008 0.5 72
2019-06-12 10:00:00 13.5 33 Oeste 53 Oeste 0 1007.9 0.6 73
2019-06-12 09:00:00 13.6 35 Oeste 54 Oeste 0 1007.8 0.9 69
2019-06-12 08:00:00 13.5 35 Oeste 60 Oeste 0 1007.5 0.4 72
2019-06-12 07:00:00 13.5 35 Oeste 59 Oeste 0 1007.3 -0.1 72
2019-06-12 06:00:00 13.1 38 Oeste 66 Oeste 0 1006.9 -0.9 75
2019-06-12 05:00:00 13.5 39 Oeste 61 Oeste 0 1007.1 -0.9 75
2019-06-12 04:00:00 13.5 40 Oeste 63 Oeste 0 1007.4 -1.3 77
2019-06-12 03:00:00 13.4 38 Oeste 63 Oeste 0 1007.8 -1.5 77
2019-06-12 02:00:00 13.5 40 Oeste 62 Oeste 0 1008 -1.6 77
2019-06-12 01:00:00 13.2 38 Oeste 58 Oeste 0.6 1008.7 -1.2 79
2019-06-12 00:00:00 13.7 37 Oeste 54 Oeste 0 1009.3 -0.8 79
2019-06-11 23:00:00 13.8 34 Oeste 54 Oeste 0 1009.6 -0.6 80
2019-06-11 22:00:00 13.7 34 Oeste 50 Oeste 0 1009.9 -0.5 80
2019-06-11 21:00:00 14.2 33 Oeste 51 Oeste 0 1010.1 -0.5 79
2019-06-11 20:00:00 14.1 32 Oeste 53 Oeste 1.2 1010.2 -0.6 83
2019-06-11 19:00:00 15 30 Oeste 51 Oeste 0 1010.4 -0.5 74
2019-06-11 18:00:00 16 32 Oeste 49 Noroeste 0 1010.6 -0.2 74
2019-06-11 17:00:00 16.2 30 Noroeste 47 Noroeste 0 1010.8 0 72
2019-06-11 16:00:00 15.3 31 Noroeste 51 Noroeste 0 1010.9 0.2 71
2019-06-11 15:00:00 15 33 Noroeste 48 Noroeste 0 1010.8 0.2 73
2019-06-11 14:00:00 14.9 30 Noroeste 45 Noroeste 0 1010.8 0.6 75
2019-06-11 13:00:00 14.8 34 Noroeste 48 Noroeste 0.4 1010.7 0.5 78
2019-06-11 12:00:00 12.5 32 Noroeste 49 Noroeste 1 1010.6 0.7 82
2019-06-11 11:00:00 13.6 22 Noroeste 41 Noroeste 1.6 1010.2 0.5 81
2019-06-11 10:00:00 12.1 20 Oeste 48 Noroeste 2.6 1010.2 0.9 83
2019-06-11 09:00:00 11.7 14 Oeste 24 Noroeste 0 1009.9 1 89
2019-06-11 08:00:00 11 14 Sudoeste 28 Sudoeste 1 1009.7 0.4 90
2019-06-11 07:00:00 11.4 21 Oeste 56 Noroeste 1.4 1009.3 -0.3 90
2019-06-11 06:00:00 12.9 24 Noroeste 35 Noroeste 0 1008.9 -1.1 88
2019-06-11 05:00:00 12.7 25 Noroeste 37 Noroeste 0 1009.3 -1.2 90
2019-06-11 04:00:00 11.2 18 Sudoeste 30 Oeste 1.4 1009.6 -1.5 93
2019-06-11 03:00:00 11 14 Sudoeste 23 Sudoeste 1.2 1010 -1.2 91
2019-06-11 02:00:00 11.1 12 Sudoeste 22 Oeste 2.6 1010.5 -0.9 90
2019-06-11 01:00:00 12.1 14 Oeste 35 Noroeste 3.4 1011.1 -0.1 87
2019-06-11 00:00:00 11.6 14 Sudoeste 25 Sudoeste 3.2 1011.2 -0.4 88
2019-06-10 23:00:00 12.2 14 Sudoeste 22 Sudoeste 0.4 1011.4 -0.6 86
2019-06-10 22:00:00 12.6 14 Sudoeste 21 Sudoeste 1.6 1011.2 -1 83
2019-06-10 21:00:00 14 12 Oeste 21 Oeste 0 1011.6 -0.9 75
2019-06-10 20:00:00 14.4 13 Oeste 19 Oeste 0 1012 -0.7 75
2019-06-10 19:00:00 14.7 11 Oeste 18 Noroeste 0 1012.2 -0.9 76
2019-06-10 18:00:00 14.9 10 Noroeste 19 Noroeste 0 1012.5 -0.8 74
2019-06-10 17:00:00 15.4 11 Noroeste 20 Noroeste 0 1012.7 -0.8 72
2019-06-10 16:00:00 15.7 14 Noroeste 23 Norte 0 1013.1 -0.8 72
2019-06-10 15:00:00 15.8 17 Noroeste 25 Noroeste 0 1013.3 -0.7 72
2019-06-10 14:00:00 15.9 11 Noroeste 20 Noroeste 0 1013.5 -0.8 73
2019-06-10 13:00:00 15.9 12 Noroeste 20 Noroeste 0 1013.9 -0.6 77
2019-06-10 12:00:00 15.8 9 Noroeste 15 Noroeste 0 1014 -0.4 76
2019-06-10 11:00:00 15.2 8 Noroeste 14 Noroeste 0 1014.3 -0.1 79
2019-06-10 10:00:00 14.7 4 Oeste 8 Noroeste 0 1014.5 0.3 82
2019-06-10 09:00:00 14.6 4 Oeste 9 Sudoeste 0 1014.4 0.4 87
2019-06-10 08:00:00 12.9 6 Sudoeste 12 Sudoeste 0 1014.4 0.2 90
2019-06-10 07:00:00 11.7 9 Sudoeste 12 Sudoeste 0 1014.2 -0.5 91
2019-06-10 06:00:00 11.6 8 Sudoeste 12 Sur 0 1014 -1.3 91
2019-06-10 05:00:00 11.9 6 Sudoeste 10 Sudoeste 0 1014.2 -1.4 91
2019-06-10 04:00:00 12 7 Sudoeste 10 Sudoeste 0 1014.7 -1.4 91
2019-06-10 03:00:00 12.2 8 Sudoeste 13 Sudoeste 0 1015.3 -1 91
2019-06-10 02:00:00 12.3 8 Sudoeste 13 Sudoeste 0 1015.6 -0.4 91
2019-06-10 01:00:00 12.5 9 Sudoeste 14 Sudoeste 0 1016.1 0.7 91
2019-06-10 00:00:00 13 7 Oeste 19 Noroeste 0 1016.3 0.9 89
2019-06-09 23:00:00 12.7 5 Oeste 13 Sudoeste 0 1016 1.3 90
2019-06-09 22:00:00 12.6 9 Sudoeste 12 Sudoeste 0 1015.4 1 90
2019-06-09 21:00:00 13.1 8 Noroeste 24 Norte 0.2 1015.4 1.2 87
2019-06-09 20:00:00 13.8 10 Norte 21 Norte 0 1014.7 0.8 88
2019-06-09 19:00:00 13.5 14 Norte 22 Norte 0.2 1014.4 0.8 91
2019-06-09 18:00:00 12.9 19 Norte 35 Norte 0.2 1014.2 0.9 93
2019-06-09 17:00:00 12.9 26 Norte 38 Norte 0 1013.9 0.8 94
2019-06-09 16:00:00 12.9 24 Norte 36 Norte 0.4 1013.6 0.7 94
2019-06-09 15:00:00 13.2 22 Noroeste 36 Noroeste 2 1013.3 0.6 93
2019-06-09 14:00:00 13.7 15 Noroeste 27 Oeste 1.6 1013.1 0.4 92
2019-06-09 13:00:00 14.4 17 Oeste 23 Oeste 0 1012.9 0.3 91
2019-06-09 12:00:00 14.2 13 Oeste 20 Noroeste 0 1012.7 0.2 91
2019-06-09 11:00:00 13.7 12 Noroeste 16 Noroeste 0 1012.7 0.2 91
2019-06-09 10:00:00 13.6 13 Norte 22 Norte 0 1012.6 0.2 90
2019-06-09 09:00:00 13.7 16 Norte 22 Norte 0 1012.5 0 88
2019-06-09 08:00:00 13.5 19 Nordeste 26 Nordeste 0 1012.5 -0.2 87
2019-06-09 07:00:00 13.5 19 Nordeste 27 Nordeste 0 1012.4 -0.8 86
2019-06-09 06:00:00 13.7 18 Nordeste 27 Nordeste 0 1012.5 -1.3 83
2019-06-09 05:00:00 13.9 18 Nordeste 28 Este 0 1012.7 -1.7 81
2019-06-09 04:00:00 14.2 21 Nordeste 28 Este 0 1013.2 -1.9 80
2019-06-09 03:00:00 14.4 15 Nordeste 21 Este 0 1013.8 -2 80
2019-06-09 02:00:00 14.4 15 Este 20 Este 0 1014.4 -1.6 80
2019-06-09 01:00:00 14.5 12 Este 19 Este 0 1015.1 -0.5 79
2019-06-09 00:00:00 14.6 12 Nordeste 19 Nordeste 0 1015.8 0.6 78
2019-06-08 23:00:00 14.7 15 Nordeste 22 Nordeste 0 1016 0.7 78
2019-06-08 22:00:00 14.7 17 Nordeste 23 Nordeste 0 1015.6 0.4 78
2019-06-08 21:00:00 15 17 Nordeste 24 Nordeste 0 1015.2 0.1 76
2019-06-08 20:00:00 15.3 18 Nordeste 28 Nordeste 0 1015.3 0 73
2019-06-08 19:00:00 15.5 21 Nordeste 30 Nordeste 0 1015.2 -0.3 73
2019-06-08 18:00:00 16 24 Nordeste 35 Nordeste 0 1015.1 -0.9 72
2019-06-08 17:00:00 16.4 28 Este 41 Este 0 1015.3 -1.1 71
2019-06-08 16:00:00 17.2 31 Este 42 Este 0 1015.5 -1.4 70
2019-06-08 15:00:00 17 32 Este 41 Este 0 1016 -1.5 69
2019-06-08 14:00:00 17.4 28 Este 38 Este 0 1016.4 -1.4 68
2019-06-08 13:00:00 17 26 Este 35 Nordeste 0 1016.9 -1.3 69
2019-06-08 12:00:00 17.5 20 Nordeste 25 Nordeste 0 1017.5 -0.7 69
2019-06-08 11:00:00 17.4 13 Este 18 Este 0 1017.8 -0.4 70
2019-06-08 10:00:00 16.2 10 Este 13 Este 0 1018.2 0.4 71
2019-06-08 09:00:00 15.1 6 Sudeste 10 Sudeste 0 1018.2 0.7 77
2019-06-08 08:00:00 13.6 8 Sur 11 Sur 0 1018.2 0.8 80
2019-06-08 07:00:00 12.9 8 Sur 10 Sur 0 1017.8 0.4 78
2019-06-08 06:00:00 13 8 Sur 11 Sur 0 1017.5 -0.1 78
2019-06-08 05:00:00 13.2 6 Sudoeste 12 Oeste 0 1017.4 0 78
2019-06-08 04:00:00 13.3 8 Oeste 12 Sudoeste 0 1017.4 0 77
2019-06-08 03:00:00 13.4 8 Sudoeste 14 Sudoeste 0 1017.6 0.6 77
2019-06-08 02:00:00 13.2 10 Sudoeste 15 Sudoeste 0 1017.4 0.7 78
2019-06-08 01:00:00 12.7 10 Sudoeste 17 Sudoeste 0 1017.4 1.4 79
2019-06-08 00:00:00 13 11 Sudoeste 19 Sudoeste 0 1017 1.5 80
2019-06-07 23:00:00 13 10 Sudoeste 18 Sudoeste 0 1016.7 1.8 80
2019-06-07 22:00:00 13.7 15 Oeste 26 Oeste 0 1016 1.9 75
2019-06-07 21:00:00 14.6 18 Oeste 28 Noroeste 0 1015.5 2.2 70
2019-06-07 20:00:00 15.2 18 Oeste 32 Noroeste 0 1014.9 2.6 69
2019-06-07 19:00:00 16 20 Oeste 38 Noroeste 0 1014.1 3 66
2019-06-07 18:00:00 16.5 23 Oeste 41 Noroeste 0 1013.3 3.4 65
2019-06-07 17:00:00 16.3 32 Noroeste 56 Noroeste 0 1012.3 3 63
2019-06-07 16:00:00 16.8 36 Noroeste 59 Noroeste 0 1011.1 2.8 64
2019-06-07 15:00:00 16.3 41 Noroeste 64 Noroeste 0 1009.9 3.4 63
2019-06-07 14:00:00 16.9 36 Noroeste 56 Noroeste 0 1009.3 4 62
2019-06-07 13:00:00 17 32 Noroeste 63 Oeste 0 1008.3 4.5 63
2019-06-07 12:00:00 16.8 49 Oeste 69 Oeste 0 1006.5 4.2 53
2019-06-07 11:00:00 16.7 50 Oeste 79 Oeste 0 1005.3 3.9 53
2019-06-07 10:00:00 16 47 Oeste 76 Oeste 0 1003.8 3.5 57
2019-06-07 09:00:00 15.7 51 Oeste 75 Oeste 0 1002.3 3.3 58
2019-06-07 08:00:00 15.2 26 Oeste 51 Oeste 0 1001.4 3.6 62
2019-06-07 07:00:00 13.8 13 Sudoeste 23 Sudoeste 0 1000.3 3.3 66
2019-06-07 06:00:00 13.5 10 Sudoeste 18 Oeste 0 999 2.3 64
2019-06-07 05:00:00 14.4 15 Sudoeste 35 Sudoeste 0 997.8 1.7 59
2019-06-07 04:00:00 14.8 17 Sudoeste 32 Sudoeste 0 997 0.7 63
2019-06-07 03:00:00 14 12 Oeste 40 Sudoeste 0 996.7 0.7 67
2019-06-07 02:00:00 15.2 27 Sudoeste 42 Sudoeste 0.2 996.1 2.3 67
2019-06-07 01:00:00 14.8 7 Sur 21 Sur 0.4 996.3 2.9 83
2019-06-07 00:00:00 15.2 18 Noroeste 48 Noroeste 0.4 996 2.8 76
2019-06-06 23:00:00 19.6 18 Sudoeste 55 Sudoeste 0 993.8 0.9 54
2019-06-06 22:00:00 20.2 31 Sudoeste 61 Sudoeste 0 993.4 0 50
2019-06-06 21:00:00 22.7 25 Oeste 51 Sudoeste 0 993.2 -1.6 40
2019-06-06 20:00:00 18.2 13 Sudeste 29 Este 0 992.9 -3.3 77
2019-06-06 19:00:00 17.7 17 Este 32 Este 0 993.4 -4 80
2019-06-06 18:00:00 18.3 15 Este 44 Este 0 994.8 -4.2 76
2019-06-06 17:00:00 18.1 35 Este 44 Este 0 996.2 -4.2 74
2019-06-06 16:00:00 17.2 35 Este 45 Este 0 997.4 -4.4 71
2019-06-06 15:00:00 18 26 Este 40 Sur 0 999 -4 69
2019-06-06 14:00:00 22.1 22 Sur 42 Sudoeste 0 1000.4 -3.7 44
2019-06-06 13:00:00 20.9 17 Sur 32 Sur 0 1001.8 -3.1 52
2019-06-06 12:00:00 17.7 26 Este 31 Este 0 1003 -2.9 67
2019-06-06 11:00:00 17.3 16 Este 22 Este 0 1004.1 -2.6 64
2019-06-06 10:00:00 16.4 11 Este 19 Sudeste 0 1004.9 -2.2 69
2019-06-06 09:00:00 14.9 10 Sudeste 16 Sudeste 0 1005.9 -1.6 75
2019-06-06 08:00:00 13.3 11 Sudeste 15 Sur 0 1006.7 -1 86
2019-06-06 07:00:00 11.6 9 Sur 12 Sur 0 1007.1 -0.9 88
2019-06-06 06:00:00 11.5 9 Sur 13 Sur 0 1007.5 -0.9 86
2019-06-06 05:00:00 11.7 11 Sur 19 Sur 0 1007.7 -1.1 85
2019-06-06 04:00:00 11.8 13 Sur 23 Sur 0 1008 -1.1 84
2019-06-06 03:00:00 12.2 11 Sur 18 Sudoeste 0 1008.4 -0.8 83
2019-06-06 02:00:00 12.1 10 Sudoeste 19 Sudoeste 0.2 1008.8 -0.3 84
2019-06-06 01:00:00 13.2 10 Sudoeste 15 Sudoeste 0 1009.1 0.3 75
2019-06-06 00:00:00 13.2 8 Sudoeste 15 Sudoeste 0 1009.2 0.6 75
2019-06-05 23:00:00 13 10 Sudoeste 16 Sudoeste 0 1009.1 0.8 78
2019-06-05 22:00:00 13.5 10 Sudoeste 23 Oeste 0 1008.8 0.5 76
2019-06-05 21:00:00 14.2 15 Oeste 29 Oeste 0 1008.6 0.5 74
2019-06-05 20:00:00 14.8 19 Oeste 31 Oeste 0 1008.3 0.1 73
2019-06-05 19:00:00 14.6 22 Oeste 34 Oeste 0 1008.3 0.4 74
2019-06-05 18:00:00 15.6 23 Oeste 36 Oeste 0 1008.1 0.4 74
2019-06-05 17:00:00 14.4 24 Oeste 47 Oeste 0 1008.2 0.8 77
2019-06-05 16:00:00 16.2 28 Oeste 42 Oeste 0 1007.9 1.1 74
2019-06-05 15:00:00 15.7 27 Oeste 45 Noroeste 0 1007.7 1.7 77
2019-06-05 14:00:00 14.9 37 Noroeste 57 Noroeste 0 1007.4 2 80
2019-06-05 13:00:00 14.2 31 Oeste 53 Oeste 0 1006.8 1.7 84
2019-06-05 12:00:00 14.8 32 Oeste 50 Oeste 0 1006 1.1 85
2019-06-05 11:00:00 14 34 Oeste 47 Oeste 0.4 1005.4 1.3 87
2019-06-05 10:00:00 13.1 33 Oeste 48 Noroeste 0.4 1005.1 0.8 89
2019-06-05 09:00:00 13 24 Oeste 46 Oeste 0 1004.9 0.7 89
2019-06-05 08:00:00 13.4 29 Oeste 44 Oeste 0 1004.1 -0.5 90
2019-06-05 07:00:00 12.4 12 Sudoeste 22 Sudoeste 0.2 1004.3 -0.3 93
2019-06-05 06:00:00 11.8 13 Sur 21 Sur 4.6 1004.2 -1 92
2019-06-05 05:00:00 11.9 13 Sudoeste 24 Sudoeste 2.2 1004.6 -1 91
2019-06-05 04:00:00 12.2 13 Sudoeste 22 Sudoeste 0.8 1004.6 -1.1 90
2019-06-05 03:00:00 12.7 9 Sudoeste 18 Sur 0.6 1005.2 -0.8 88
2019-06-05 02:00:00 13.1 11 Sur 20 Sudoeste 0 1005.6 -0.9 87
2019-06-05 01:00:00 13 13 Sudoeste 24 Sudoeste 0 1005.7 -0.2 89
2019-06-05 00:00:00 12.7 14 Sudoeste 22 Sudoeste 1.6 1006 0.1 89
2019-06-04 23:00:00 13.3 12 Sudoeste 22 Sudoeste 1.6 1006.5 0.6 87
2019-06-04 22:00:00 14 10 Sudoeste 18 Sudoeste 0 1005.9 0.2 87
2019-06-04 21:00:00 14 13 Oeste 28 Oeste 0 1005.9 0.4 88
2019-06-04 20:00:00 14.2 21 Oeste 32 Noroeste 1 1005.9 0.5 89
2019-06-04 19:00:00 14.7 15 Oeste 29 Oeste 0.4 1005.7 1 86
2019-06-04 18:00:00 16 14 Oeste 33 Oeste 0 1005.5 1.5 83
2019-06-04 17:00:00 16.1 23 Oeste 40 Noroeste 0 1005.4 2.4 83
2019-06-04 16:00:00 16.1 29 Oeste 46 Oeste 0 1004.7 2.2 83
2019-06-04 15:00:00 16.8 30 Oeste 47 Noroeste 0 1004 1.5 88
2019-06-04 14:00:00 17.9 9 Norte 14 Noroeste 0 1003 0.7 91
2019-06-04 13:00:00 18.2 6 Norte 26 Noroeste 0 1002.5 0.5 91
2019-06-04 12:00:00 17.5 19 Noroeste 29 Noroeste 0 1002.5 0.8 91
2019-06-04 11:00:00 18.8 15 Oeste 21 Oeste 0 1002.3 0.5 92
2019-06-04 10:00:00 18 10 Noroeste 16 Noroeste 0 1002 0.4 94
2019-06-04 09:00:00 17.5 6 Oeste 12 Oeste 0 1001.7 -0.2 95
2019-06-04 08:00:00 16.4 10 Oeste 13 Oeste 0 1001.8 -0.5 96
2019-06-04 07:00:00 15.9 9 Sudoeste 13 Sudoeste 0 1001.6 -0.5 95
2019-06-04 06:00:00 15.9 9 Sudoeste 15 Oeste 0 1001.9 -0.8 95
2019-06-04 05:00:00 15.2 11 Oeste 16 Oeste 0 1002.3 -1.8 95
2019-06-04 04:00:00 15.4 7 Este 14 Este 0 1002.1 -3.1 94
2019-06-04 03:00:00 15.6 11 Este 22 Este 0 1002.7 -3.7 94
2019-06-04 02:00:00 15.7 10 Este 15 Este 0 1004.1 -2.9 94
2019-06-04 01:00:00 15.9 12 Este 18 Este 0 1005.2 -2.1 94
2019-06-04 00:00:00 16 9 Este 16 Este 0 1006.4 -1.1 93
2019-06-03 23:00:00 16.5 12 Este 16 Este 0 1007 -0.4 93
2019-06-03 22:00:00 16.9 8 Nordeste 13 Nordeste 0 1007.3 -0.2 91
2019-06-03 21:00:00 17.6 9 Nordeste 18 Nordeste 0 1007.5 -0.2 89
2019-06-03 20:00:00 18.7 13 Nordeste 21 Este 0 1007.4 -0.7 87
2019-06-03 19:00:00 19.2 15 Nordeste 23 Este 0 1007.5 -1.3 85
2019-06-03 18:00:00 19.6 18 Este 24 Este 0 1007.7 -1.6 85
2019-06-03 17:00:00 20 14 Nordeste 20 Nordeste 0 1008.1 -1.7 86
2019-06-03 16:00:00 19.6 16 Nordeste 21 Nordeste 0 1008.8 -1.6 86
2019-06-03 15:00:00 19.6 15 Nordeste 21 Nordeste 0 1009.3 -1.4 85
2019-06-03 14:00:00 19.1 18 Nordeste 22 Nordeste 0 1009.8 -0.7 85
2019-06-03 13:00:00 20.1 12 Nordeste 16 Nordeste 0 1010.4 -0.4 83
2019-06-03 12:00:00 18.6 6 Norte 11 Norte 0 1010.7 -0.3 87
2019-06-03 11:00:00 18.6 5 Nordeste 13 Sudeste 0 1010.5 -0.4 85
2019-06-03 10:00:00 17.9 8 Sudeste 13 Sur 0 1010.8 -0.1 87
2019-06-03 09:00:00 17.2 10 Sur 14 Sur 0 1011 0.9 89
2019-06-03 08:00:00 16.1 8 Sur 11 Sur 0 1010.9 0.7 91
2019-06-03 07:00:00 15.5 8 Noroeste 12 Nordeste 0 1010.9 0.3 90
2019-06-03 06:00:00 15.4 2 Norte 14 Sudeste 0 1010.1 -1.1 88
2019-06-03 05:00:00 15.7 8 Sudoeste 11 Sudoeste 0 1010.2 -0.9 87
2019-06-03 04:00:00 15.8 8 Sudoeste 13 Oeste 0 1010.6 -0.8 87
2019-06-03 03:00:00 15.9 10 Oeste 12 Oeste 0 1011.2 -0.8 87
2019-06-03 02:00:00 16.2 6 Sudoeste 10 Sudoeste 0 1011.1 -0.4 86
2019-06-03 01:00:00 16.4 3 Oeste 10 Oeste 0 1011.4 0.4 85
2019-06-03 00:00:00 16.5 8 Oeste 13 Oeste 0 1012 0.7 85
2019-06-02 23:00:00 16.4 9 Oeste 14 Oeste 0 1011.5 0.4 84
2019-06-02 22:00:00 16.7 10 Oeste 17 Oeste 0 1011 0 85
2019-06-02 21:00:00 16.7 13 Oeste 17 Oeste 0 1011.3 0.5 88
2019-06-02 20:00:00 17.4 12 Oeste 21 Oeste 0 1011.1 0.4 87
2019-06-02 19:00:00 17.8 15 Oeste 22 Noroeste 0 1011 0.8 85
2019-06-02 18:00:00 19.2 16 Noroeste 26 Oeste 0 1010.8 0.6 82
2019-06-02 17:00:00 19.4 15 Oeste 21 Noroeste 0 1010.7 0.4 80
2019-06-02 16:00:00 20.5 13 Oeste 19 Noroeste 0 1010.2 0.2 72
2019-06-02 15:00:00 20.2 10 Oeste 19 Oeste 0 1010.2 0.4 77
2019-06-02 14:00:00 20 13 Oeste 22 Noroeste 0 1010.3 0.7 77
2019-06-02 13:00:00 20.1 14 Noroeste 21 Noroeste 0 1010 0.2 71
2019-06-02 12:00:00 19.8 10 Noroeste 17 Noroeste 0 1009.8 0.5 66
2019-06-02 11:00:00 20.9 8 Noroeste 16 Noroeste 0 1009.6 0.2 66
2019-06-02 10:00:00 20.9 9 Noroeste 14 Noroeste 0 1009.8 0.3 62
2019-06-02 09:00:00 21.5 7 Oeste 12 Oeste 0 1009.3 -0.3 57
2019-06-02 08:00:00 20.5 8 Sudoeste 15 Sudoeste 0 1009.4 -0.2 56
2019-06-02 07:00:00 19.2 13 Sudoeste 18 Sudoeste 0 1009.5 -0.5 57
2019-06-02 06:00:00 18.3 14 Oeste 20 Oeste 0 1009.6 -0.6 67
2019-06-02 05:00:00 18.7 13 Oeste 16 Oeste 0 1009.6 -0.9 63
2019-06-02 04:00:00 19.4 12 Oeste 21 Sudoeste 0 1010 -0.7 56
2019-06-02 03:00:00 21 12 Sudoeste 22 Sudoeste 0 1010.2 -0.7 49
2019-06-02 02:00:00 20.7 13 Sudoeste 24 Sudoeste 0 1010.5 -0.2 50
2019-06-02 01:00:00 20 17 Sudoeste 23 Sudoeste 0 1010.7 0.5 54
2019-06-02 00:00:00 18.4 13 Sudoeste 23 Oeste 0 1010.9 0.9 71
2019-06-01 23:00:00 18.3 19 Oeste 24 Oeste 0 1010.7 1 73
2019-06-01 22:00:00 18.9 19 Oeste 23 Oeste 0 1010.2 0.7 65
2019-06-01 21:00:00 20.8 17 Oeste 26 Oeste 0 1010 0.3 59
2019-06-01 20:00:00 21.3 18 Oeste 28 Oeste 0 1009.7 -0.2 64
2019-06-01 19:00:00 21.5 20 Oeste 26 Oeste 0 1009.5 -0.7 64
2019-06-01 18:00:00 22.2 18 Oeste 25 Oeste 0 1009.7 -0.8 65
2019-06-01 17:00:00 21.5 22 Oeste 27 Oeste 0 1009.9 -1 68
2019-06-01 16:00:00 21.8 21 Oeste 27 Oeste 0 1010.2 -0.8 67
2019-06-01 15:00:00 22.9 14 Oeste 19 Oeste 0 1010.5 -0.4 63
2019-06-01 14:00:00 21.6 6 Noroeste 9 Noroeste 0 1010.9 0 67
2019-06-01 13:00:00 21.7 5 Noroeste 9 Noroeste 0 1011 0.2 67
2019-06-01 12:00:00 22.6 4 Nordeste 7 Nordeste 0 1010.9 0.1 72
2019-06-01 11:00:00 22.3 5 Nordeste 7 Nordeste 0 1010.9 -0.1 70
2019-06-01 10:00:00 21.4 3 Norte 6 Nordeste 0 1010.8 0 75
2019-06-01 09:00:00 20.8 3 Nordeste 7 Sudeste 0 1010.8 0.1 81
2019-06-01 08:00:00 19 3 Sudeste 5 Norte 0 1011 0.1 84
2019-06-01 07:00:00 17.2 3 Sudeste 14 Sudeste 0 1010.8 -0.4 86
2019-06-01 06:00:00 16.7 12 Sur 14 Sur 0 1010.7 -0.9 87
2019-06-01 05:00:00 16.9 3 Sudeste 9 Sur 0 1010.9 -1 84
2019-06-01 04:00:00 17.3 7 Sur 11 Sur 0 1011.2 -1.3 84
2019-06-01 03:00:00 16.7 5 Sudeste 11 Sudeste 0 1011.6 -1.4 83
2019-06-01 02:00:00 16.7 10 Sudeste 14 Sudeste 0 1011.9 -1 82
2019-06-01 01:00:00 17.1 7 Sudeste 19 Este 0 1012.5 0 81
2019-06-01 00:00:00 17.4 7 Este 24 Este 0 1013 0.4 81
2019-05-31 23:00:00 17.1 18 Este 30 Este 0 1012.9 0.3 82
2019-05-31 22:00:00 17.3 19 Este 33 Este 0 1012.5 -0.4 79
2019-05-31 21:00:00 19.1 22 Este 39 Sudeste 0 1012.6 -0.8 74
2019-05-31 20:00:00 19.7 25 Este 39 Este 0 1012.6 -1.4 73
2019-05-31 19:00:00 19.9 25 Este 39 Este 0 1012.9 -1.4 75
2019-05-31 18:00:00 19.6 25 Este 37 Este 0 1013.4 -1.4 78
2019-05-31 17:00:00 19.1 28 Este 37 Este 0 1014 -1 78
2019-05-31 16:00:00 19.4 24 Este 37 Este 0 1014.3 -1 80
2019-05-31 15:00:00 18.9 26 Este 35 Este 0 1014.8 -0.5 82
2019-05-31 14:00:00 18.8 24 Este 35 Este 0 1015 -0.4 82
2019-05-31 13:00:00 18.9 25 Este 36 Este 0 1015.3 -0.2 82
2019-05-31 12:00:00 18.6 27 Este 33 Este 0 1015.3 -0.5 80
2019-05-31 11:00:00 18.7 22 Este 29 Este 0 1015.4 -0.4 78
2019-05-31 10:00:00 19.2 14 Este 18 Este 0 1015.5 -0.3 78
2019-05-31 09:00:00 18.6 8 Este 14 Este 0 1015.8 0 80
2019-05-31 08:00:00 17.8 7 Sudeste 15 Sudeste 0 1015.8 -0.4 85
2019-05-31 07:00:00 14.7 13 Sudeste 19 Este 0 1015.8 -0.6 90
2019-05-31 06:00:00 14.4 13 Este 23 Este 0 1015.8 -1.1 89
2019-05-31 05:00:00 14.7 16 Este 23 Este 0 1016.2 -1.4 89
2019-05-31 04:00:00 15.5 15 Este 23 Sudeste 0 1016.4 -1.8 87
2019-05-31 03:00:00 15.1 16 Sudeste 19 Sudeste 0 1016.9 -1.6 89
2019-05-31 02:00:00 15.1 13 Este 20 Sudeste 0 1017.6 -0.7 88
2019-05-31 01:00:00 15.6 17 Este 28 Este 0 1018.2 0.5 88
2019-05-31 00:00:00 15.4 23 Este 32 Este 0 1018.5 0.9 89
2019-05-30 23:00:00 15.4 23 Este 34 Este 0 1018.3 0.5 88
2019-05-30 22:00:00 15.8 28 Este 35 Este 0 1017.7 -0.2 83
2019-05-30 21:00:00 17 20 Este 36 Este 0 1017.6 -0.6 78
2019-05-30 20:00:00 17.5 21 Este 36 Este 0 1017.8 -0.4 77
2019-05-30 19:00:00 17.8 29 Este 36 Este 0 1017.9 -0.4 77
2019-05-30 18:00:00 17.5 28 Este 44 Este 0 1018.2 -0.2 81
2019-05-30 17:00:00 17.2 34 Este 45 Este 0 1018.2 -0.6 81
2019-05-30 16:00:00 17.4 30 Este 43 Este 0 1018.3 -0.7 80
2019-05-30 15:00:00 17.4 33 Este 42 Este 0 1018.4 -0.8 79
2019-05-30 14:00:00 17.4 33 Este 44 Este 0 1018.8 -0.6 77
2019-05-30 13:00:00 17.5 27 Este 39 Este 0 1019 -0.6 76
2019-05-30 12:00:00 17.3 25 Este 35 Este 0 1019.2 -0.3 78
2019-05-30 11:00:00 17.1 24 Este 31 Este 0 1019.4 0.1 80
2019-05-30 10:00:00 16.5 22 Este 26 Este 0 1019.6 0.7 81
2019-05-30 09:00:00 16.6 11 Este 18 Sudeste 0 1019.5 0.7 82
2019-05-30 08:00:00 15.5 6 Este 13 Sur 0 1019.3 0.5 86
2019-05-30 07:00:00 12.4 12 Sudeste 17 Sudeste 0 1018.9 -0.3 91
2019-05-30 06:00:00 11.8 15 Sudeste 17 Sudeste 0 1018.8 -1 90
2019-05-30 05:00:00 12.1 15 Sudeste 20 Sudeste 0 1018.8 -1.5 89
2019-05-30 04:00:00 12.5 14 Sudeste 18 Sudeste 0 1019.2 -1.2 88
2019-05-30 03:00:00 12.6 10 Sudeste 19 Sudeste 0 1019.8 -0.7 87
2019-05-30 02:00:00 13.3 15 Sudeste 23 Sudeste 0 1020.3 -0.3 86
2019-05-30 01:00:00 13.3 14 Este 21 Este 0 1020.4 0.3 86
2019-05-30 00:00:00 13.4 14 Este 18 Sudeste 0 1020.5 0.5 85
2019-05-29 23:00:00 13.8 14 Sudeste 24 Este 0 1020.6 0.7 84
2019-05-29 22:00:00 14.5 21 Este 27 Este 0 1020.1 0 82
2019-05-29 21:00:00 15.4 22 Este 30 Nordeste 0 1020 -0.2 80
2019-05-29 20:00:00 16.2 17 Este 23 Este 0 1019.9 -0.6 77
2019-05-29 19:00:00 16.6 17 Este 22 Este 0 1020.1 -0.2 73
2019-05-29 18:00:00 17.6 14 Nordeste 18 Nordeste 0 1020.2 -0.5 72
2019-05-29 17:00:00 17.5 13 Nordeste 15 Nordeste 0 1020.5 -0.2 73
2019-05-29 16:00:00 18 9 Nordeste 13 Nordeste 0 1020.3 -0.6 76
2019-05-29 15:00:00 17.2 8 Nordeste 11 Nordeste 0 1020.7 0 79
2019-05-29 14:00:00 16.8 7 Nordeste 10 Norte 0 1020.7 0.3 82
2019-05-29 13:00:00 16.5 9 Norte 11 Norte 0 1020.9 0.5 83
2019-05-29 12:00:00 15.8 5 Norte 9 Norte 0 1020.7 0.8 85
2019-05-29 11:00:00 15.2 4 Norte 17 Norte 0 1020.4 1.1 87
2019-05-29 10:00:00 15.4 10 Norte 18 Norte 0 1020.4 1.6 87
2019-05-29 09:00:00 14.5 16 Noroeste 22 Noroeste 0 1019.9 1.5 89
2019-05-29 08:00:00 14.3 16 Noroeste 31 Noroeste 0 1019.3 1.1 89
2019-05-29 07:00:00 14.2 19 Noroeste 32 Oeste 0 1018.8 0.3 89
2019-05-29 06:00:00 14 18 Oeste 30 Oeste 0 1018.4 -0.2 88
2019-05-29 05:00:00 13.7 21 Oeste 31 Oeste 0 1018.2 -0.5 87
2019-05-29 04:00:00 13.4 17 Oeste 23 Oeste 0 1018.5 -0.2 87
2019-05-29 03:00:00 14 17 Oeste 27 Oeste 0 1018.6 0.1 86
2019-05-29 02:00:00 14.1 18 Oeste 27 Oeste 0 1018.7 0.1 84
2019-05-29 01:00:00 14.3 17 Oeste 28 Noroeste 0 1018.7 0.7 84
2019-05-29 00:00:00 14.3 19 Noroeste 29 Noroeste 0 1018.5 0.8 82
2019-05-28 23:00:00 14.2 18 Noroeste 32 Noroeste 0 1018.6 1 81
2019-05-28 22:00:00 14.3 19 Noroeste 31 Noroeste 0 1018 0.6 80
2019-05-28 21:00:00 15.1 20 Noroeste 30 Noroeste 0 1017.7 0.7 78
2019-05-28 20:00:00 15.3 21 Noroeste 31 Noroeste 0 1017.6 0.8 77
2019-05-28 19:00:00 15.6 20 Noroeste 35 Noroeste 0 1017.4 0.7 77
2019-05-28 18:00:00 15.8 26 Noroeste 38 Noroeste 0 1017 0.7 77
2019-05-28 17:00:00 16 26 Noroeste 36 Noroeste 0 1016.8 0.7 77
2019-05-28 16:00:00 16 28 Noroeste 38 Noroeste 0 1016.7 1.1 79
2019-05-28 15:00:00 15.3 25 Noroeste 36 Noroeste 0 1016.3 0.9 83
2019-05-28 14:00:00 14.8 22 Noroeste 35 Noroeste 0 1016.1 1.2 85
2019-05-28 13:00:00 14.1 24 Noroeste 48 Noroeste 0.4 1015.6 0.8 87
2019-05-28 12:00:00 14.3 29 Noroeste 43 Noroeste 0 1015.4 1.1 85
2019-05-28 11:00:00 15.5 27 Oeste 37 Oeste 0 1014.9 0.9 85
2019-05-28 10:00:00 14.1 24 Oeste 39 Oeste 0 1014.8 1.3 88
2019-05-28 09:00:00 13.8 24 Oeste 42 Noroeste 0 1014.3 1 88
2019-05-28 08:00:00 13.5 27 Oeste 41 Oeste 0 1014 0.7 88
2019-05-28 07:00:00 13.8 21 Oeste 33 Oeste 0 1013.5 0.1 86
2019-05-28 06:00:00 13.6 18 Oeste 31 Noroeste 0 1013.3 0 85
2019-05-28 05:00:00 13.8 20 Noroeste 31 Noroeste 0 1013.3 -0.4 86
2019-05-28 04:00:00 13.7 22 Noroeste 30 Noroeste 0 1013.4 -0.5 85
2019-05-28 03:00:00 13.6 20 Noroeste 28 Noroeste 0 1013.3 -0.7 85
2019-05-28 02:00:00 13.9 18 Noroeste 31 Noroeste 0 1013.7 -0.3 85
2019-05-28 01:00:00 13.9 19 Noroeste 28 Noroeste 0 1013.9 0.4 85
2019-05-28 00:00:00 14 16 Noroeste 26 Noroeste 0 1014 0.8 86
2019-05-27 23:00:00 14.1 17 Noroeste 28 Noroeste 0 1014 1 86
2019-05-27 22:00:00 14.2 18 Noroeste 24 Noroeste 0 1013.5 0.7 87
2019-05-27 21:00:00 14.5 17 Noroeste 24 Noroeste 0 1013.2 0.7 88
2019-05-27 20:00:00 14.7 15 Noroeste 24 Noroeste 0 1013 0.9 89
2019-05-27 19:00:00 14.8 18 Noroeste 24 Noroeste 0 1012.8 0.7 91
2019-05-27 18:00:00 14.9 21 Noroeste 28 Noroeste 0 1012.5 0.2 93
2019-05-27 17:00:00 14.8 20 Noroeste 27 Norte 0.2 1012.1 0 94
2019-05-27 16:00:00 16.4 16 Oeste 23 Noroeste 0 1012.1 0.1 94
2019-05-27 15:00:00 16 15 Noroeste 33 Oeste 0 1012.3 0.3 95
2019-05-27 14:00:00 14.6 24 Oeste 33 Oeste 0.4 1012.1 0 95
2019-05-27 13:00:00 14.5 22 Oeste 29 Oeste 0 1012 0 93
2019-05-27 12:00:00 14.4 17 Oeste 26 Oeste 0 1012 0.1 93
2019-05-27 11:00:00 14.3 19 Oeste 26 Oeste 0 1012.1 0.1 92
2019-05-27 10:00:00 14.2 17 Oeste 26 Oeste 0.4 1012 0 89
2019-05-27 09:00:00 14.1 9 Sudoeste 16 Oeste 0 1011.9 -0.1 91
2019-05-27 08:00:00 13.8 10 Sudoeste 19 Sudoeste 0 1012 -0.4 92
2019-05-27 07:00:00 13.5 11 Sudoeste 18 Oeste 0 1012 -1 92
2019-05-27 06:00:00 13.5 9 Sudoeste 17 Sudoeste 0 1012 -1.3 93
2019-05-27 05:00:00 13.5 10 Sudoeste 19 Sudoeste 0 1012.4 -1.3 93
2019-05-27 04:00:00 13.4 10 Sudoeste 16 Sudoeste 0 1013 -1.3 94
2019-05-27 03:00:00 13.3 9 Sudoeste 17 Sudoeste 0 1013.3 -1.7 94
2019-05-27 02:00:00 13.2 9 Sudoeste 17 Sudoeste 0 1013.7 -1.4 94
2019-05-27 01:00:00 13.2 9 Sudoeste 17 Sudoeste 0 1014.3 -0.6 93
2019-05-27 00:00:00 13.6 12 Oeste 19 Oeste 0 1015 -0.1 92
2019-05-26 23:00:00 13.6 10 Sudoeste 15 Sudoeste 0 1015.1 -0.2 93
2019-05-26 22:00:00 13.8 8 Oeste 12 Oeste 0 1014.9 -0.7 92
2019-05-26 21:00:00 13.9 8 Oeste 23 Noroeste 0.2 1015.1 -0.7 92
2019-05-26 20:00:00 14.2 14 Oeste 22 Oeste 0 1015.3 -1 89
2019-05-26 19:00:00 15 13 Oeste 18 Oeste 0 1015.6 -0.8 89
2019-05-26 18:00:00 14.9 7 Noroeste 23 Noroeste 0 1015.8 -1 89
2019-05-26 17:00:00 14.7 17 Noroeste 27 Noroeste 0 1016.3 -0.7 88
2019-05-26 16:00:00 15.7 12 Noroeste 21 Oeste 0 1016.4 -0.9 88
2019-05-26 15:00:00 14.5 13 Oeste 25 Oeste 0 1016.8 -0.5 88
2019-05-26 14:00:00 14.9 18 Noroeste 30 Noroeste 0 1017 -0.3 88
2019-05-26 13:00:00 15.8 19 Oeste 28 Oeste 0 1017.3 0.2 85
2019-05-26 12:00:00 16 19 Oeste 28 Oeste 0 1017.3 0.2 86
2019-05-26 11:00:00 15.9 18 Oeste 26 Oeste 0 1017.3 0.4 86
2019-05-26 10:00:00 15.3 19 Oeste 26 Oeste 0 1017.1 0.4 88
2019-05-26 09:00:00 14.7 14 Oeste 20 Oeste 0 1017.1 0.4 89
2019-05-26 08:00:00 13.7 11 Oeste 17 Oeste 0 1016.9 -0.1 89
2019-05-26 07:00:00 13.5 10 Oeste 17 Sudoeste 0 1016.7 -0.8 89
2019-05-26 06:00:00 13.4 11 Sudoeste 17 Oeste 0 1016.7 -1.1 89
2019-05-26 05:00:00 13.5 10 Sudoeste 16 Sudoeste 0 1017 -1.2 89
2019-05-26 04:00:00 13.8 6 Sudoeste 13 Oeste 0 1017.5 -1.1 90
2019-05-26 03:00:00 13.8 9 Oeste 16 Oeste 0 1017.8 -1 89
2019-05-26 02:00:00 13.5 9 Sudoeste 18 Oeste 0 1018.2 -0.7 88
2019-05-26 01:00:00 13.7 12 Oeste 21 Noroeste 0.2 1018.6 0 86
2019-05-26 00:00:00 14 9 Oeste 17 Noroeste 0 1018.8 0.6 84
2019-05-25 23:00:00 14.3 8 Oeste 15 Noroeste 0 1018.9 1.1 83
2019-05-25 22:00:00 14.4 12 Oeste 17 Noroeste 0 1018.6 0.6 82
2019-05-25 21:00:00 14.7 10 Noroeste 15 Oeste 0 1018.2 0.1 80
2019-05-25 20:00:00 16.2 10 Oeste 18 Noroeste 0 1017.8 -0.3 76
2019-05-25 19:00:00 16 12 Noroeste 18 Noroeste 0 1018 -0.2 78
2019-05-25 18:00:00 16.7 10 Noroeste 18 Noroeste 0 1018.1 -0.5 80
2019-05-25 17:00:00 16.3 10 Noroeste 17 Noroeste 0 1018.1 -0.6 82
2019-05-25 16:00:00 15.6 10 Noroeste 16 Norte 0 1018.2 -0.5 82
2019-05-25 15:00:00 16.3 10 Noroeste 19 Norte 0 1018.6 0.1 85
2019-05-25 14:00:00 15.9 12 Noroeste 22 Noroeste 0 1018.7 0.4 84
2019-05-25 13:00:00 15.7 14 Noroeste 25 Norte 0 1018.7 0.8 86
2019-05-25 12:00:00 15.2 18 Noroeste 26 Noroeste 0 1018.5 0.8 90
2019-05-25 11:00:00 14.9 12 Noroeste 22 Noroeste 0 1018.3 1 90
2019-05-25 10:00:00 15.7 15 Noroeste 24 Noroeste 0 1017.9 1.2 91
2019-05-25 09:00:00 14.6 16 Noroeste 26 Noroeste 0 1017.7 1.2 93
2019-05-25 08:00:00 14 18 Noroeste 35 Noroeste 0.4 1017.3 1 92
2019-05-25 07:00:00 13.9 18 Noroeste 26 Noroeste 0 1016.7 0 91
2019-05-25 06:00:00 13.8 17 Oeste 25 Noroeste 0 1016.5 -0.2 91
2019-05-25 05:00:00 13.8 14 Oeste 24 Noroeste 0 1016.3 -0.6 90
2019-05-25 04:00:00 13.9 16 Noroeste 23 Noroeste 0 1016.7 -0.3 90
2019-05-25 03:00:00 13.9 17 Noroeste 23 Noroeste 0 1016.7 -0.2 91
2019-05-25 02:00:00 14 15 Noroeste 26 Noroeste 0 1016.9 0.1 92
2019-05-25 01:00:00 14 13 Noroeste 24 Noroeste 0 1017 0.9 93
2019-05-25 00:00:00 14.1 15 Noroeste 23 Oeste 0 1016.9 1.1 94
2019-05-24 23:00:00 13.8 13 Oeste 25 Oeste 0 1016.8 1.3 93
2019-05-24 22:00:00 14 12 Oeste 21 Noroeste 0 1016.1 0.5 92
2019-05-24 21:00:00 14.5 15 Oeste 23 Noroeste 0 1015.8 0.1 91
2019-05-24 20:00:00 14.8 15 Oeste 24 Oeste 0 1015.5 -0.1 90
2019-05-24 19:00:00 14.9 16 Oeste 26 Noroeste 0 1015.6 -0.1 90
2019-05-24 18:00:00 15.1 16 Noroeste 27 Noroeste 0 1015.7 0 90
2019-05-24 17:00:00 14.6 22 Noroeste 34 Oeste 0 1015.6 -0.1 90
2019-05-24 16:00:00 15 19 Noroeste 34 Noroeste 0 1015.7 0.2 89
2019-05-24 15:00:00 15.5 22 Noroeste 34 Noroeste 0 1015.7 0.6 89
2019-05-24 14:00:00 14.2 21 Oeste 35 Noroeste 1.4 1015.7 0.8 91
2019-05-24 13:00:00 15.3 21 Oeste 36 Noroeste 0 1015.5 0.7 88
2019-05-24 12:00:00 15.3 23 Oeste 36 Oeste 0 1015.1 0.5 89
2019-05-24 11:00:00 14 22 Noroeste 38 Noroeste 0.2 1014.9 0.6 91
2019-05-24 10:00:00 13.9 26 Oeste 38 Noroeste 0 1014.8 1.1 91
2019-05-24 09:00:00 14 23 Oeste 34 Oeste 0 1014.6 1.3 92
2019-05-24 08:00:00 13.7 19 Noroeste 32 Oeste 0 1014.3 1 91
2019-05-24 07:00:00 13.4 22 Oeste 37 Oeste 0 1013.7 0.3 90
2019-05-24 06:00:00 13.5 22 Oeste 35 Oeste 0 1013.3 -0.3 89
2019-05-24 05:00:00 13.7 23 Oeste 36 Oeste 0 1013.3 -0.7 89
2019-05-24 04:00:00 13.6 26 Oeste 44 Oeste 0 1013.4 -0.7 90
2019-05-24 03:00:00 13.7 23 Oeste 46 Oeste 0 1013.6 -0.4 91
2019-05-24 02:00:00 13.4 29 Oeste 49 Noroeste 0 1014 0 91
2019-05-24 01:00:00 13.4 28 Oeste 47 Oeste 0 1014.1 0.3 92
2019-05-24 00:00:00 13.9 29 Oeste 44 Oeste 0 1014 0.2 92
2019-05-23 23:00:00 14 30 Oeste 46 Oeste 0 1014 0.6 92
2019-05-23 22:00:00 14.3 22 Oeste 33 Oeste 0 1013.8 0.5 92
2019-05-23 21:00:00 14.5 21 Oeste 35 Oeste 0 1013.8 0.9 91
2019-05-23 20:00:00 14.8 19 Oeste 27 Oeste 0 1013.4 0.7 91
2019-05-23 19:00:00 15.2 16 Oeste 26 Oeste 0 1013.3 0.9 90
2019-05-23 18:00:00 15.6 18 Oeste 25 Oeste 2.6 1012.9 0.3 90
2019-05-23 17:00:00 15.7 15 Oeste 24 Oeste 0 1012.7 0.2 86
2019-05-23 16:00:00 16.2 14 Oeste 23 Oeste 0 1012.4 -0.2 86
2019-05-23 15:00:00 17.1 16 Noroeste 25 Oeste 0 1012.6 -0.1 86
2019-05-23 14:00:00 17.2 15 Oeste 25 Oeste 0 1012.5 0.1 87
2019-05-23 13:00:00 16.4 19 Oeste 26 Oeste 0 1012.6 0.7 87
2019-05-23 12:00:00 16.1 19 Oeste 29 Oeste 0 1012.7 1.5 88
2019-05-23 11:00:00 15.3 21 Oeste 33 Oeste 0 1012.4 1.8 92
2019-05-23 10:00:00 14.6 22 Oeste 40 Oeste 0 1011.9 1.9 93
2019-05-23 09:00:00 14.7 26 Oeste 39 Oeste 0 1011.2 1.5 93
2019-05-23 08:00:00 14.4 24 Oeste 36 Oeste 0 1010.6 0.7 92
2019-05-23 07:00:00 13.8 8 Oeste 10 Oeste 0 1010 0 91
2019-05-23 06:00:00 14.1 8 Oeste 10 Sudoeste 0 1009.7 -0.6 92
2019-05-23 05:00:00 14.2 5 Sudoeste 8 Oeste 0 1009.9 -0.9 92
2019-05-23 04:00:00 14.2 8 Oeste 9 Oeste 0 1010 -0.9 91
2019-05-23 03:00:00 14.6 3 Sudoeste 7 Sudoeste 0 1010.3 -0.7 90
2019-05-23 02:00:00 14.8 5 Sudoeste 9 Sur 0 1010.8 -0.3 90
2019-05-23 01:00:00 14.2 9 Sur 11 Sudeste 0 1010.9 0.2 90
2019-05-23 00:00:00 14.1 8 Sudeste 16 Sudeste 0 1011 0.6 90
2019-05-22 23:00:00 14.4 10 Este 18 Este 0 1011.1 0.8 90
2019-05-22 22:00:00 14.7 13 Este 27 Este 0 1010.7 0.6 90
2019-05-22 21:00:00 15.2 20 Este 32 Este 0 1010.4 0.2 90
2019-05-22 20:00:00 15.4 25 Este 37 Este 0 1010.3 0 89
2019-05-22 19:00:00 15.7 27 Este 37 Este 0 1010.1 -0.5 86
2019-05-22 18:00:00 16.1 28 Este 41 Este 0 1010.2 -0.6 84
2019-05-22 17:00:00 16.4 33 Este 45 Este 0 1010.3 -0.7 83
2019-05-22 16:00:00 16.4 33 Este 45 Este 0 1010.6 -0.6 82
2019-05-22 15:00:00 16.5 32 Este 45 Este 0 1010.8 -0.8 82
2019-05-22 14:00:00 16.5 32 Este 42 Este 0 1011 -0.8 81
2019-05-22 13:00:00 16.3 31 Este 39 Este 0 1011.2 -0.8 81
2019-05-22 12:00:00 16 29 Este 38 Este 0 1011.6 -0.5 82
2019-05-22 11:00:00 15.8 27 Este 38 Este 0 1011.8 -0.5 81
2019-05-22 10:00:00 15.1 24 Este 34 Este 0 1012 -0.3 83
2019-05-22 09:00:00 13.9 10 Este 18 Sudeste 0 1012.1 -0.4 87
2019-05-22 08:00:00 12.4 8 Sudeste 14 Sudeste 0 1012.3 -0.4 92
2019-05-22 07:00:00 10.3 11 Sudeste 17 Sudeste 0 1012.3 -0.6 92
2019-05-22 06:00:00 10.5 12 Sudeste 16 Sudeste 0 1012.5 -0.3 91
2019-05-22 05:00:00 11.1 14 Sudeste 19 Sudeste 0 1012.7 -0.6 91
2019-05-22 04:00:00 11.3 15 Sudeste 21 Sudeste 0 1012.9 -0.7 91
2019-05-22 03:00:00 11.5 17 Sudeste 20 Sudeste 0 1012.8 -0.9 91
2019-05-22 02:00:00 11.9 13 Sudeste 20 Sudeste 0 1013.3 -0.4 90
2019-05-22 01:00:00 12.3 15 Este 22 Este 0 1013.6 0.6 89
2019-05-22 00:00:00 12.6 13 Este 21 Este 0 1013.7 1 88
2019-05-21 23:00:00 12.9 14 Este 25 Este 0 1013.7 1.4 87
2019-05-21 22:00:00 13.2 19 Este 25 Este 0 1013 0.6 85
2019-05-21 21:00:00 14.1 16 Este 29 Este 0 1012.7 0.4 82
2019-05-21 20:00:00 14.7 21 Este 31 Este 0 1012.3 0 80
2019-05-21 19:00:00 15.2 22 Este 36 Este 0 1012.4 0.5 80
2019-05-21 18:00:00 15.6 25 Este 36 Este 0 1012.3 0.2 78
2019-05-21 17:00:00 16 27 Este 41 Este 0 1012.3 0.2 77
2019-05-21 16:00:00 16 32 Este 40 Este 0 1011.9 -0.4 78
2019-05-21 15:00:00 16.2 27 Este 38 Este 0 1012.1 0 79
2019-05-21 14:00:00 16.2 26 Este 36 Este 0 1012.1 0.2 79
2019-05-21 13:00:00 16.1 22 Nordeste 32 Este 0 1012.3 0.4 81
2019-05-21 12:00:00 15.6 26 Este 34 Este 0 1012.1 0.5 82
2019-05-21 11:00:00 15.2 24 Este 31 Este 0 1011.9 0.5 85
2019-05-21 10:00:00 14.7 8 Este 14 Sudeste 0 1011.9 1 89
2019-05-21 09:00:00 12.5 9 Sudeste 13 Sudeste 0 1011.6 1.2 93
2019-05-21 08:00:00 10.8 9 Sudeste 10 Sudeste 0 1011.4 1.2 93
2019-05-21 07:00:00 10.8 6 Sudeste 10 Sudeste 0 1010.9 0.8 93
2019-05-21 06:00:00 10.7 8 Sudeste 10 Sudeste 0 1010.4 0.1 92
2019-05-21 05:00:00 11 7 Sudeste 11 Sudeste 0 1010.2 -0.4 92
2019-05-21 04:00:00 11 9 Sudeste 11 Sudeste 0 1010.1 -0.8 92
2019-05-21 03:00:00 11.2 8 Sudeste 12 Sudeste 0 1010.3 -0.4 91
2019-05-21 02:00:00 11.1 11 Sudeste 15 Sudeste 0 1010.6 -0.1 91
2019-05-21 01:00:00 11.5 8 Sudeste 13 Sudeste 0 1010.9 0.8 90
2019-05-21 00:00:00 12.3 10 Sudeste 12 Sudeste 0 1010.7 1 89
2019-05-20 23:00:00 12.3 8 Sudeste 14 Este 0 1010.7 1.2 87
2019-05-20 22:00:00 12.9 11 Este 16 Este 0 1010.1 0.8 85
2019-05-20 21:00:00 13.4 12 Nordeste 17 Nordeste 0 1009.7 0.6 83
2019-05-20 20:00:00 13.9 13 Nordeste 18 Nordeste 0 1009.5 0.6 81
2019-05-20 19:00:00 15.2 15 Nordeste 19 Nordeste 0 1009.3 0 77
2019-05-20 18:00:00 15.5 15 Nordeste 21 Nordeste 0 1009.1 -0.4 77
2019-05-20 17:00:00 15.9 17 Nordeste 22 Nordeste 0 1008.9 -0.8 76
2019-05-20 16:00:00 16 15 Nordeste 19 Nordeste 0 1009.3 -0.4 76
2019-05-20 15:00:00 15.1 15 Nordeste 18 Nordeste 0 1009.5 -0.2 78
2019-05-20 14:00:00 14.7 13 Norte 19 Norte 0 1009.7 -0.1 80
2019-05-20 13:00:00 14.5 10 Norte 14 Norte 0 1009.7 0.2 81
2019-05-20 12:00:00 14.4 8 Noroeste 15 Noroeste 0 1009.7 0.6 79
2019-05-20 11:00:00 14.3 9 Noroeste 17 Oeste 0 1009.8 1.1 78
2019-05-20 10:00:00 14.4 8 Oeste 15 Oeste 0 1009.5 1.2 79
2019-05-20 09:00:00 13.1 9 Sudoeste 15 Sudoeste 0 1009.1 0.7 82
2019-05-20 08:00:00 11.4 10 Sudoeste 17 Sudoeste 0 1008.7 0.2 86
2019-05-20 07:00:00 10.5 12 Sudoeste 19 Sudoeste 0 1008.3 -0.3 88
2019-05-20 06:00:00 10.6 13 Sudoeste 21 Sudoeste 0 1008.4 -0.6 88
2019-05-20 05:00:00 10.5 13 Sudoeste 21 Sudoeste 0 1008.5 -1 89
2019-05-20 04:00:00 10.6 10 Sudoeste 20 Sudoeste 0 1008.6 -1.2 89
2019-05-20 03:00:00 11.2 10 Sudoeste 20 Sudoeste 0 1009 -0.9 89
2019-05-20 02:00:00 11.4 11 Sudoeste 17 Sudoeste 0 1009.5 -0.4 89
2019-05-20 01:00:00 11.5 9 Sudoeste 17 Oeste 0 1009.8 0.5 89
2019-05-20 00:00:00 12 12 Sudoeste 19 Noroeste 0 1009.9 0.7 88
2019-05-19 23:00:00 12 12 Oeste 19 Noroeste 0 1009.9 1.1 87
2019-05-19 22:00:00 12.2 12 Oeste 25 Oeste 0 1009.3 0.6 86
2019-05-19 21:00:00 12.7 15 Oeste 27 Oeste 0 1009.2 0.5 83
2019-05-19 20:00:00 13.4 15 Oeste 27 Oeste 0 1008.8 0.1 83
2019-05-19 19:00:00 14.5 20 Oeste 32 Noroeste 0 1008.7 -0.1 80
2019-05-19 18:00:00 15 21 Noroeste 39 Noroeste 0 1008.7 0.2 81
2019-05-19 17:00:00 15 27 Noroeste 46 Noroeste 0 1008.7 0.3 82
2019-05-19 16:00:00 14.4 31 Noroeste 47 Noroeste 0 1008.8 0.7 81
2019-05-19 15:00:00 14.2 31 Oeste 48 Oeste 0 1008.5 0.9 82
2019-05-19 14:00:00 12.7 33 Oeste 49 Oeste 0 1008.4 1.1 84
2019-05-19 13:00:00 12.7 33 Oeste 53 Oeste 0 1008.1 1 85
2019-05-19 12:00:00 12.3 35 Oeste 53 Oeste 0.2 1007.6 1 87
2019-05-19 11:00:00 11.7 36 Oeste 55 Oeste 1 1007.3 1 89
2019-05-19 10:00:00 11.2 32 Oeste 53 Oeste 0.8 1007.1 1.3 90
2019-05-19 09:00:00 11.3 38 Oeste 58 Oeste 1 1006.6 1 89
2019-05-19 08:00:00 11.5 40 Oeste 57 Oeste 0.6 1006.3 0.6 88
2019-05-19 07:00:00 11.5 40 Oeste 59 Oeste 0.6 1005.8 0.2 89
2019-05-19 06:00:00 11.7 37 Oeste 59 Oeste 0.6 1005.6 -0.3 90
2019-05-19 05:00:00 11.9 35 Oeste 58 Oeste 0 1005.7 -0.4 90
2019-05-19 04:00:00 11.6 37 Oeste 57 Oeste 0 1005.6 -0.7 90
2019-05-19 03:00:00 11.9 37 Oeste 58 Oeste 0.4 1005.9 -0.5 90
2019-05-19 02:00:00 11.6 37 Oeste 59 Oeste 1.4 1006.1 -0.4 90
2019-05-19 01:00:00 11.7 34 Oeste 55 Oeste 0.6 1006.3 0.2 90
2019-05-19 00:00:00 12.1 38 Oeste 54 Oeste 0.4 1006.4 0.5 90
2019-05-18 23:00:00 12.4 33 Oeste 55 Oeste 0 1006.5 1 88
2019-05-18 22:00:00 12.4 35 Oeste 59 Oeste 0.2 1006.1 0.8 88
2019-05-18 21:00:00 12.5 39 Oeste 60 Noroeste 0 1005.9 1 86
2019-05-18 20:00:00 12.5 43 Oeste 63 Oeste 0 1005.5 0.9 87
2019-05-18 19:00:00 11.9 40 Oeste 58 Oeste 0.6 1005.3 0.4 89
2019-05-18 18:00:00 11.8 39 Oeste 60 Oeste 0.4 1004.9 0.2 87
2019-05-18 17:00:00 11.9 40 Oeste 61 Oeste 0.2 1004.6 0 86
2019-05-18 16:00:00 12.1 37 Oeste 58 Oeste 0.2 1004.9 0.3 86
2019-05-18 15:00:00 11.6 38 Oeste 63 Oeste 0.4 1004.7 0.5 88
2019-05-18 14:00:00 10.8 40 Oeste 61 Oeste 3.8 1004.6 0.2 90
2019-05-18 13:00:00 10.8 40 Oeste 63 Oeste 1 1004.6 0.5 90
2019-05-18 12:00:00 10.6 40 Oeste 58 Oeste 2 1004.2 0.3 90
2019-05-18 11:00:00 10.1 23 Oeste 52 Oeste 2.2 1004.4 0.9 89
2019-05-18 10:00:00 10.4 38 Oeste 57 Oeste 2 1004.1 0.9 88
2019-05-18 09:00:00 9.9 24 Oeste 52 Oeste 0.8 1003.9 0.4 86
2019-05-18 08:00:00 10.4 37 Oeste 59 Oeste 0.2 1003.5 -0.3 84
2019-05-18 07:00:00 11.1 36 Oeste 57 Noroeste 0 1003.2 -1 80
2019-05-18 06:00:00 9.7 19 Oeste 41 Oeste 1.6 1003.5 -1.3 82
2019-05-18 05:00:00 10.5 28 Oeste 53 Oeste 0 1003.8 -1.5 77
2019-05-18 04:00:00 10.9 35 Oeste 53 Oeste 0 1004.2 -1.2 79
2019-05-18 03:00:00 10.8 29 Oeste 48 Oeste 0 1004.8 -1 83
2019-05-18 02:00:00 10.3 20 Oeste 45 Oeste 0 1005.3 -0.7 83
2019-05-18 01:00:00 10.8 32 Oeste 58 Oeste 0 1005.4 0 85
2019-05-18 00:00:00 10.3 27 Oeste 45 Oeste 1.2 1005.8 0.6 88
2019-05-17 23:00:00 10.9 27 Oeste 60 Oeste 0.4 1006 0.8 87
2019-05-17 22:00:00 11.6 43 Oeste 66 Oeste 0 1005.4 0.2 85
2019-05-17 21:00:00 12 30 Oeste 49 Noroeste 1.2 1005.2 0.1 89
2019-05-17 20:00:00 11.2 29 Oeste 46 Oeste 0.8 1005.2 0.2 90
2019-05-17 19:00:00 11.3 28 Oeste 52 Oeste 0 1005.2 0.1 89
2019-05-17 18:00:00 11.5 33 Oeste 51 Noroeste 3.4 1005.1 0.2 89
2019-05-17 17:00:00 13.5 28 Oeste 49 Oeste 0.8 1005 0.2 88
2019-05-17 16:00:00 11.9 37 Oeste 54 Oeste 2.4 1005.1 0.8 86
2019-05-17 15:00:00 13.1 31 Oeste 47 Oeste 0 1004.9 1.4 86
2019-05-17 14:00:00 13.3 31 Noroeste 50 Oeste 0 1004.8 1.7 89
2019-05-17 13:00:00 13.1 36 Oeste 59 Noroeste 0 1004.3 2.2 90
2019-05-17 12:00:00 12.7 39 Noroeste 57 Noroeste 0.8 1003.5 2.2 90
2019-05-17 11:00:00 13.3 37 Noroeste 60 Noroeste 0 1003.1 2.6 88
2019-05-17 10:00:00 13.1 40 Oeste 67 Oeste 0 1002.1 2.6 89
2019-05-17 09:00:00 12.8 44 Noroeste 67 Noroeste 0 1001.3 2.7 91
2019-05-17 08:00:00 13.1 41 Noroeste 67 Oeste 1.2 1000.5 2.4 92
2019-05-17 07:00:00 12.6 27 Noroeste 41 Noroeste 0.4 999.5 0.7 93
2019-05-17 06:00:00 11.6 37 Oeste 73 Oeste 1.6 998.6 -1.1 92
2019-05-17 05:00:00 11.8 48 Oeste 68 Oeste 0 998.1 -2.8 89
2019-05-17 04:00:00 12.2 32 Oeste 49 Oeste 0 998.8 -2.5 86
2019-05-17 03:00:00 12.4 27 Oeste 45 Oeste 0 999.7 -2.7 87
2019-05-17 02:00:00 12.2 29 Oeste 43 Noroeste 0 1000.9 -1.9 91
2019-05-17 01:00:00 11.8 27 Oeste 38 Oeste 0.4 1001.3 -1.6 92
2019-05-17 00:00:00 12 14 Oeste 25 Oeste 0.4 1002.4 -0.2 91